Moffett Field, CA

08:48 AM PST del 28 novembre 2014 (GMT -0800)
Moffett Federal Air Field | Change Station
CLOSE
Current Station
Aeroporto
Location: Moffett NAS,
Altitudine: 39 ft
Stazioni meteo nelle vicinanze

Alt. 39 ft 37.41 °N, 122.05 °W | Updated 52 minutes ago

Nebbia
Nebbia
50 °F
Sembra 50 °F
N
4
Vento Variabile Vento da SSE

Oggi
Massima -- | Minima -- °F
--% Possibilità di precip.
Ieri
Massima -- | Minima -- °F
Precip. -- in
7:01 AM 4:51 PM
Luna crescente, 42% visible
Pressione 30.06 in
Visibilità 2.0 miglia
Nuvole Coperto 500 ft
Punto di rugiada 50 °F
Umidità 100%
Piovosità 0.00 in
Spessore del manto nevoso Non disponibile.
Raggi UV 0 fuori da 12
Polline 2.30 fuori da 12
Qualità dell'aria Non disponibile.
Flu Activity Non disponibile.
METAR KNUQ 281556Z AUTO 16003KT 2SM BR OVC005 10/10 A3005 RMK AO2 SLP177 T01000100 TSNO $

More Conditions Fewer Conditions

Pressione 30.06 in
Visibilità 2.0 miglia
Nuvole Coperto 500 ft
Punto di rugiada 50 °F
Umidità 100%
Piovosità 0.00 in
Spessore del manto nevoso Non disponibile.
Raggi UV 0 fuori da 12
Polline 2.30 fuori da 12
Qualità dell'aria Non disponibile.
Flu Activity Non disponibile.
METAR KNUQ 281556Z AUTO 16003KT 2SM BR OVC005 10/10 A3005 RMK AO2 SLP177 T01000100 TSNO $

More Conditions Fewer Conditions

Nowcast | as of 7:23 am PST on November 28, 2014

Patchy dense fog is currently being experienced along the 101 corridor along the San Francisco peninsula as well as in the the Santa Clara Valley. These conditions are expected to continue through about 9 am. Drivers are urged to use caution while driving through dense fog.

×

10-Day Weather Forecast

Almanac

Astronomia

Nov. 28, 2014 Alba Tramonto
Ora attuale
Crepuscolo civile
Crepuscolo nautico
Crepuscolo astronomico
Luna
Estensione della luce visibile
Lunghezza del giorno
Tomorrow will be .
, % of the Moon is Illuminated

Gli estremi di oggi

State Highs State Lows

Community

WunderPhotos

Upload Photos

1,774,235 foto caricate!

WunderBlogs® & News

Nearby

Qualità dell'aria

  Qualità dell'aria Indice AQ Inquinante
Not available.

Profondità neve

Stazione Profondità Altitudine

Attività sismica

Città  Distanza Mag. Data & Ora
Minimo Magnitudo Mostrato è 2.5.

Temperature delle acque costiere

Località Temperatura

Stazioni meteo nelle vicinanze